sensor_id;sensor_type;location;lat;lon;timestamp;P1;durP1;ratioP1;P2;durP2;ratioP2
8225;SDS011;4154;48.810;9.012;2023-06-14T00:00:14;4.78;;;4.13;;
8225;SDS011;4154;48.810;9.012;2023-06-14T00:02:41;4.43;;;4.03;;
8225;SDS011;4154;48.810;9.012;2023-06-14T00:05:06;4.50;;;4.10;;
8225;SDS011;4154;48.810;9.012;2023-06-14T00:07:36;4.32;;;3.97;;
8225;SDS011;4154;48.810;9.012;2023-06-14T00:10:10;4.70;;;4.10;;
8225;SDS011;4154;48.810;9.012;2023-06-14T00:12:38;5.10;;;4.53;;
8225;SDS011;4154;48.810;9.012;2023-06-14T00:15:04;4.40;;;4.00;;
8225;SDS011;4154;48.810;9.012;2023-06-14T00:17:31;4.20;;;3.80;;
8225;SDS011;4154;48.810;9.012;2023-06-14T00:19:57;4.50;;;3.70;;
8225;SDS011;4154;48.810;9.012;2023-06-14T00:22:23;4.25;;;3.90;;
8225;SDS011;4154;48.810;9.012;2023-06-14T00:24:50;5.43;;;3.85;;
8225;SDS011;4154;48.810;9.012;2023-06-14T00:27:16;4.45;;;3.75;;
8225;SDS011;4154;48.810;9.012;2023-06-14T00:29:42;4.32;;;3.92;;
8225;SDS011;4154;48.810;9.012;2023-06-14T00:32:08;5.10;;;3.85;;
8225;SDS011;4154;48.810;9.012;2023-06-14T00:34:34;4.45;;;4.05;;
8225;SDS011;4154;48.810;9.012;2023-06-14T00:36:59;5.38;;;4.55;;
8225;SDS011;4154;48.810;9.012;2023-06-14T00:39:26;4.40;;;4.00;;
8225;SDS011;4154;48.810;9.012;2023-06-14T00:41:52;4.63;;;4.20;;
8225;SDS011;4154;48.810;9.012;2023-06-14T00:44:18;4.75;;;4.35;;
8225;SDS011;4154;48.810;9.012;2023-06-14T00:46:45;5.28;;;4.22;;
8225;SDS011;4154;48.810;9.012;2023-06-14T00:49:11;4.50;;;4.07;;
8225;SDS011;4154;48.810;9.012;2023-06-14T00:51:40;4.38;;;4.00;;
8225;SDS011;4154;48.810;9.012;2023-06-14T00:54:09;4.55;;;4.15;;
8225;SDS011;4154;48.810;9.012;2023-06-14T00:56:35;4.20;;;3.90;;
8225;SDS011;4154;48.810;9.012;2023-06-14T00:59:02;4.70;;;4.07;;
8225;SDS011;4154;48.810;9.012;2023-06-14T01:01:28;3.97;;;3.67;;
8225;SDS011;4154;48.810;9.012;2023-06-14T01:03:57;4.25;;;3.75;;
8225;SDS011;4154;48.810;9.012;2023-06-14T01:09:37;5.00;;;4.43;;
8225;SDS011;4154;48.810;9.012;2023-06-14T01:15:14;4.50;;;4.07;;
8225;SDS011;4154;48.810;9.012;2023-06-14T01:17:41;5.03;;;4.28;;
8225;SDS011;4154;48.810;9.012;2023-06-14T01:20:13;4.78;;;4.35;;
8225;SDS011;4154;48.810;9.012;2023-06-14T01:22:54;4.80;;;4.40;;
8225;SDS011;4154;48.810;9.012;2023-06-14T01:25:20;4.63;;;4.22;;
8225;SDS011;4154;48.810;9.012;2023-06-14T01:27:55;6.20;;;4.53;;
8225;SDS011;4154;48.810;9.012;2023-06-14T01:30:27;4.65;;;4.25;;
8225;SDS011;4154;48.810;9.012;2023-06-14T01:32:56;4.30;;;3.90;;
8225;SDS011;4154;48.810;9.012;2023-06-14T01:35:23;5.53;;;4.47;;
8225;SDS011;4154;48.810;9.012;2023-06-14T01:37:49;4.57;;;4.10;;
8225;SDS011;4154;48.810;9.012;2023-06-14T01:40:18;4.53;;;4.10;;
8225;SDS011;4154;48.810;9.012;2023-06-14T01:42:46;4.85;;;4.32;;
8225;SDS011;4154;48.810;9.012;2023-06-14T01:45:15;5.00;;;4.50;;
8225;SDS011;4154;48.810;9.012;2023-06-14T01:47:42;5.03;;;4.38;;
8225;SDS011;4154;48.810;9.012;2023-06-14T01:50:10;6.22;;;4.60;;
8225;SDS011;4154;48.810;9.012;2023-06-14T01:52:37;5.40;;;4.88;;
8225;SDS011;4154;48.810;9.012;2023-06-14T01:55:04;5.35;;;4.72;;
8225;SDS011;4154;48.810;9.012;2023-06-14T01:57:31;4.90;;;4.50;;
8225;SDS011;4154;48.810;9.012;2023-06-14T01:59:57;5.10;;;4.60;;
8225;SDS011;4154;48.810;9.012;2023-06-14T02:02:23;6.05;;;4.80;;
8225;SDS011;4154;48.810;9.012;2023-06-14T02:04:49;4.95;;;4.55;;
8225;SDS011;4154;48.810;9.012;2023-06-14T02:07:15;5.10;;;4.60;;
8225;SDS011;4154;48.810;9.012;2023-06-14T02:09:40;5.80;;;4.57;;
8225;SDS011;4154;48.810;9.012;2023-06-14T02:12:06;4.90;;;4.50;;
8225;SDS011;4154;48.810;9.012;2023-06-14T02:14:33;5.25;;;4.75;;
8225;SDS011;4154;48.810;9.012;2023-06-14T02:16:59;5.63;;;4.97;;
8225;SDS011;4154;48.810;9.012;2023-06-14T02:19:26;6.47;;;4.80;;
8225;SDS011;4154;48.810;9.012;2023-06-14T02:21:52;5.20;;;4.70;;
8225;SDS011;4154;48.810;9.012;2023-06-14T02:24:18;5.03;;;4.40;;
8225;SDS011;4154;48.810;9.012;2023-06-14T02:26:43;4.80;;;4.40;;
8225;SDS011;4154;48.810;9.012;2023-06-14T02:29:09;4.93;;;4.43;;
8225;SDS011;4154;48.810;9.012;2023-06-14T02:31:37;5.10;;;4.63;;
8225;SDS011;4154;48.810;9.012;2023-06-14T02:34:03;5.33;;;4.83;;
8225;SDS011;4154;48.810;9.012;2023-06-14T02:36:29;5.10;;;4.60;;
8225;SDS011;4154;48.810;9.012;2023-06-14T02:38:55;4.80;;;4.40;;
8225;SDS011;4154;48.810;9.012;2023-06-14T02:41:24;4.72;;;4.32;;
8225;SDS011;4154;48.810;9.012;2023-06-14T02:43:51;5.67;;;4.50;;
8225;SDS011;4154;48.810;9.012;2023-06-14T02:46:18;5.00;;;4.60;;
8225;SDS011;4154;48.810;9.012;2023-06-14T02:48:44;5.13;;;4.63;;
8225;SDS011;4154;48.810;9.012;2023-06-14T02:51:10;4.87;;;4.40;;
8225;SDS011;4154;48.810;9.012;2023-06-14T02:53:37;4.53;;;4.17;;
8225;SDS011;4154;48.810;9.012;2023-06-14T02:56:03;5.57;;;4.70;;
8225;SDS011;4154;48.810;9.012;2023-06-14T02:58:29;5.20;;;4.70;;
8225;SDS011;4154;48.810;9.012;2023-06-14T03:00:55;6.03;;;5.00;;
8225;SDS011;4154;48.810;9.012;2023-06-14T03:03:21;4.97;;;4.47;;
8225;SDS011;4154;48.810;9.012;2023-06-14T03:05:49;5.27;;;4.67;;
8225;SDS011;4154;48.810;9.012;2023-06-14T03:08:16;5.77;;;4.80;;
8225;SDS011;4154;48.810;9.012;2023-06-14T03:10:44;4.80;;;4.40;;
8225;SDS011;4154;48.810;9.012;2023-06-14T03:13:11;5.07;;;4.53;;
8225;SDS011;4154;48.810;9.012;2023-06-14T03:15:38;4.77;;;4.27;;
8225;SDS011;4154;48.810;9.012;2023-06-14T03:18:07;6.27;;;4.23;;
8225;SDS011;4154;48.810;9.012;2023-06-14T03:20:34;4.87;;;4.47;;
8225;SDS011;4154;48.810;9.012;2023-06-14T03:23:03;5.40;;;4.80;;
8225;SDS011;4154;48.810;9.012;2023-06-14T03:25:30;5.37;;;4.37;;
8225;SDS011;4154;48.810;9.012;2023-06-14T03:27:58;5.30;;;4.77;;
8225;SDS011;4154;48.810;9.012;2023-06-14T03:30:23;5.87;;;4.47;;
8225;SDS011;4154;48.810;9.012;2023-06-14T03:32:49;5.53;;;4.80;;
8225;SDS011;4154;48.810;9.012;2023-06-14T03:35:17;5.10;;;4.53;;
8225;SDS011;4154;48.810;9.012;2023-06-14T03:37:44;4.80;;;4.40;;
8225;SDS011;4154;48.810;9.012;2023-06-14T03:40:12;6.17;;;4.70;;
8225;SDS011;4154;48.810;9.012;2023-06-14T03:42:41;5.37;;;4.80;;
8225;SDS011;4154;48.810;9.012;2023-06-14T03:45:06;5.00;;;4.57;;
8225;SDS011;4154;48.810;9.012;2023-06-14T03:47:33;4.97;;;4.23;;
8225;SDS011;4154;48.810;9.012;2023-06-14T03:49:59;6.33;;;4.20;;
8225;SDS011;4154;48.810;9.012;2023-06-14T03:52:26;6.13;;;4.63;;
8225;SDS011;4154;48.810;9.012;2023-06-14T03:54:52;5.27;;;4.77;;
8225;SDS011;4154;48.810;9.012;2023-06-14T03:57:18;4.80;;;4.40;;
8225;SDS011;4154;48.810;9.012;2023-06-14T03:59:45;4.73;;;4.20;;
8225;SDS011;4154;48.810;9.012;2023-06-14T04:02:11;5.33;;;4.30;;
8225;SDS011;4154;48.810;9.012;2023-06-14T04:04:41;5.70;;;4.90;;
8225;SDS011;4154;48.810;9.012;2023-06-14T04:07:10;5.90;;;4.70;;
8225;SDS011;4154;48.810;9.012;2023-06-14T04:09:37;7.10;;;4.90;;
8225;SDS011;4154;48.810;9.012;2023-06-14T04:12:04;5.20;;;4.70;;
8225;SDS011;4154;48.810;9.012;2023-06-14T04:14:31;5.10;;;4.53;;
8225;SDS011;4154;48.810;9.012;2023-06-14T04:16:57;5.23;;;4.30;;
8225;SDS011;4154;48.810;9.012;2023-06-14T04:19:24;6.27;;;5.03;;
8225;SDS011;4154;48.810;9.012;2023-06-14T04:21:50;5.80;;;4.80;;
8225;SDS011;4154;48.810;9.012;2023-06-14T04:24:15;5.30;;;4.80;;
8225;SDS011;4154;48.810;9.012;2023-06-14T04:26:41;5.23;;;4.70;;
8225;SDS011;4154;48.810;9.012;2023-06-14T04:29:10;6.43;;;4.83;;
8225;SDS011;4154;48.810;9.012;2023-06-14T04:31:41;5.87;;;5.07;;
8225;SDS011;4154;48.810;9.012;2023-06-14T04:34:11;6.30;;;5.23;;
8225;SDS011;4154;48.810;9.012;2023-06-14T04:36:41;5.67;;;5.00;;
8225;SDS011;4154;48.810;9.012;2023-06-14T04:39:15;4.87;;;4.47;;
8225;SDS011;4154;48.810;9.012;2023-06-14T04:41:42;5.73;;;5.07;;
8225;SDS011;4154;48.810;9.012;2023-06-14T04:44:09;5.27;;;4.83;;
8225;SDS011;4154;48.810;9.012;2023-06-14T04:46:35;5.73;;;5.10;;
8225;SDS011;4154;48.810;9.012;2023-06-14T04:49:21;5.97;;;5.37;;
8225;SDS011;4154;48.810;9.012;2023-06-14T04:51:48;5.50;;;4.50;;
8225;SDS011;4154;48.810;9.012;2023-06-14T04:54:22;5.87;;;5.27;;
8225;SDS011;4154;48.810;9.012;2023-06-14T04:56:50;5.10;;;4.60;;
8225;SDS011;4154;48.810;9.012;2023-06-14T04:59:16;5.90;;;4.60;;
8225;SDS011;4154;48.810;9.012;2023-06-14T05:01:42;6.03;;;5.17;;
8225;SDS011;4154;48.810;9.012;2023-06-14T05:04:14;5.47;;;4.97;;
8225;SDS011;4154;48.810;9.012;2023-06-14T05:06:41;4.93;;;4.50;;
8225;SDS011;4154;48.810;9.012;2023-06-14T05:09:13;5.87;;;5.30;;
8225;SDS011;4154;48.810;9.012;2023-06-14T05:11:40;6.00;;;4.90;;
8225;SDS011;4154;48.810;9.012;2023-06-14T05:14:09;6.47;;;4.73;;
8225;SDS011;4154;48.810;9.012;2023-06-14T05:16:36;4.93;;;4.43;;
8225;SDS011;4154;48.810;9.012;2023-06-14T05:19:02;5.60;;;4.85;;
8225;SDS011;4154;48.810;9.012;2023-06-14T05:21:29;6.83;;;4.77;;
8225;SDS011;4154;48.810;9.012;2023-06-14T05:23:56;5.37;;;4.87;;
8225;SDS011;4154;48.810;9.012;2023-06-14T05:26:22;7.20;;;4.93;;
8225;SDS011;4154;48.810;9.012;2023-06-14T05:28:50;5.50;;;4.50;;
8225;SDS011;4154;48.810;9.012;2023-06-14T05:31:17;5.20;;;4.80;;
8225;SDS011;4154;48.810;9.012;2023-06-14T05:33:43;5.57;;;4.78;;
8225;SDS011;4154;48.810;9.012;2023-06-14T05:36:09;5.63;;;4.95;;
8225;SDS011;4154;48.810;9.012;2023-06-14T05:38:35;5.13;;;4.50;;
8225;SDS011;4154;48.810;9.012;2023-06-14T05:41:00;5.40;;;4.57;;
8225;SDS011;4154;48.810;9.012;2023-06-14T05:43:27;5.40;;;4.90;;
8225;SDS011;4154;48.810;9.012;2023-06-14T05:45:52;4.78;;;4.38;;
8225;SDS011;4154;48.810;9.012;2023-06-14T05:48:18;8.88;;;4.63;;
8225;SDS011;4154;48.810;9.012;2023-06-14T05:50:44;5.13;;;4.68;;
8225;SDS011;4154;48.810;9.012;2023-06-14T05:53:10;5.38;;;4.75;;
8225;SDS011;4154;48.810;9.012;2023-06-14T05:55:36;5.38;;;4.88;;
8225;SDS011;4154;48.810;9.012;2023-06-14T05:58:02;5.30;;;4.80;;
8225;SDS011;4154;48.810;9.012;2023-06-14T06:00:28;7.28;;;4.63;;
8225;SDS011;4154;48.810;9.012;2023-06-14T06:02:53;5.15;;;4.65;;
8225;SDS011;4154;48.810;9.012;2023-06-14T06:05:22;5.47;;;4.68;;
8225;SDS011;4154;48.810;9.012;2023-06-14T06:07:48;6.47;;;5.07;;
8225;SDS011;4154;48.810;9.012;2023-06-14T06:10:14;5.78;;;4.55;;
8225;SDS011;4154;48.810;9.012;2023-06-14T06:12:43;5.07;;;4.57;;
8225;SDS011;4154;48.810;9.012;2023-06-14T06:15:09;5.10;;;4.60;;
8225;SDS011;4154;48.810;9.012;2023-06-14T06:17:38;5.38;;;4.82;;
8225;SDS011;4154;48.810;9.012;2023-06-14T06:20:04;5.32;;;4.55;;
8225;SDS011;4154;48.810;9.012;2023-06-14T06:22:33;6.38;;;4.70;;
8225;SDS011;4154;48.810;9.012;2023-06-14T06:24:59;6.75;;;4.82;;
8225;SDS011;4154;48.810;9.012;2023-06-14T06:27:25;6.32;;;4.88;;
8225;SDS011;4154;48.810;9.012;2023-06-14T06:29:51;10.73;;;5.05;;
8225;SDS011;4154;48.810;9.012;2023-06-14T06:32:17;7.88;;;4.95;;
8225;SDS011;4154;48.810;9.012;2023-06-14T06:34:43;5.85;;;4.80;;
8225;SDS011;4154;48.810;9.012;2023-06-14T06:37:08;7.15;;;4.90;;
8225;SDS011;4154;48.810;9.012;2023-06-14T06:39:34;8.30;;;4.95;;
8225;SDS011;4154;48.810;9.012;2023-06-14T06:42:00;5.43;;;4.50;;
8225;SDS011;4154;48.810;9.012;2023-06-14T06:44:26;8.55;;;4.47;;
8225;SDS011;4154;48.810;9.012;2023-06-14T06:46:51;5.22;;;4.78;;
8225;SDS011;4154;48.810;9.012;2023-06-14T06:49:17;9.65;;;5.10;;
8225;SDS011;4154;48.810;9.012;2023-06-14T06:51:43;6.82;;;4.88;;
8225;SDS011;4154;48.810;9.012;2023-06-14T06:54:24;11.30;;;5.70;;
8225;SDS011;4154;48.810;9.012;2023-06-14T06:56:50;6.57;;;4.95;;
8225;SDS011;4154;48.810;9.012;2023-06-14T06:59:16;5.93;;;4.53;;
8225;SDS011;4154;48.810;9.012;2023-06-14T07:01:42;6.43;;;5.00;;
8225;SDS011;4154;48.810;9.012;2023-06-14T07:04:08;6.35;;;4.45;;
8225;SDS011;4154;48.810;9.012;2023-06-14T07:06:34;5.18;;;4.38;;
8225;SDS011;4154;48.810;9.012;2023-06-14T07:09:01;9.35;;;4.80;;
8225;SDS011;4154;48.810;9.012;2023-06-14T07:11:27;8.30;;;4.70;;
8225;SDS011;4154;48.810;9.012;2023-06-14T07:13:52;6.20;;;4.80;;
8225;SDS011;4154;48.810;9.012;2023-06-14T07:16:18;5.65;;;5.03;;
8225;SDS011;4154;48.810;9.012;2023-06-14T07:18:45;5.93;;;4.72;;
8225;SDS011;4154;48.810;9.012;2023-06-14T07:21:11;5.93;;;4.40;;
8225;SDS011;4154;48.810;9.012;2023-06-14T07:23:37;6.40;;;4.75;;
8225;SDS011;4154;48.810;9.012;2023-06-14T07:26:03;5.25;;;4.75;;
8225;SDS011;4154;48.810;9.012;2023-06-14T07:28:30;6.05;;;4.68;;
8225;SDS011;4154;48.810;9.012;2023-06-14T07:30:56;5.22;;;4.72;;
8225;SDS011;4154;48.810;9.012;2023-06-14T07:33:22;5.25;;;4.75;;
8225;SDS011;4154;48.810;9.012;2023-06-14T07:35:48;5.53;;;4.90;;
8225;SDS011;4154;48.810;9.012;2023-06-14T07:38:14;5.35;;;4.85;;
8225;SDS011;4154;48.810;9.012;2023-06-14T07:40:40;6.32;;;4.97;;
8225;SDS011;4154;48.810;9.012;2023-06-14T07:43:06;6.70;;;4.90;;
8225;SDS011;4154;48.810;9.012;2023-06-14T07:45:32;5.28;;;4.85;;
8225;SDS011;4154;48.810;9.012;2023-06-14T07:47:59;7.78;;;4.70;;
8225;SDS011;4154;48.810;9.012;2023-06-14T07:50:25;5.70;;;4.60;;
8225;SDS011;4154;48.810;9.012;2023-06-14T07:52:51;5.25;;;4.72;;
8225;SDS011;4154;48.810;9.012;2023-06-14T07:55:17;7.90;;;4.55;;
8225;SDS011;4154;48.810;9.012;2023-06-14T07:57:43;6.03;;;4.25;;
8225;SDS011;4154;48.810;9.012;2023-06-14T08:00:09;5.75;;;4.93;;
8225;SDS011;4154;48.810;9.012;2023-06-14T08:02:40;6.03;;;4.80;;
8225;SDS011;4154;48.810;9.012;2023-06-14T08:05:06;5.38;;;4.68;;
8225;SDS011;4154;48.810;9.012;2023-06-14T08:07:34;6.18;;;5.15;;
8225;SDS011;4154;48.810;9.012;2023-06-14T08:10:00;8.63;;;5.13;;
8225;SDS011;4154;48.810;9.012;2023-06-14T08:12:26;6.22;;;5.15;;
8225;SDS011;4154;48.810;9.012;2023-06-14T08:14:52;7.07;;;4.90;;
8225;SDS011;4154;48.810;9.012;2023-06-14T08:17:18;9.90;;;4.90;;
8225;SDS011;4154;48.810;9.012;2023-06-14T08:19:45;8.07;;;4.90;;
8225;SDS011;4154;48.810;9.012;2023-06-14T08:22:11;6.68;;;4.70;;
8225;SDS011;4154;48.810;9.012;2023-06-14T08:24:37;9.63;;;5.30;;
8225;SDS011;4154;48.810;9.012;2023-06-14T08:27:05;7.40;;;4.80;;
8225;SDS011;4154;48.810;9.012;2023-06-14T08:29:31;6.15;;;4.85;;
8225;SDS011;4154;48.810;9.012;2023-06-14T08:31:58;5.80;;;5.20;;
8225;SDS011;4154;48.810;9.012;2023-06-14T08:34:24;6.75;;;5.07;;
8225;SDS011;4154;48.810;9.012;2023-06-14T08:36:50;6.97;;;5.40;;
8225;SDS011;4154;48.810;9.012;2023-06-14T08:39:16;5.00;;;4.50;;
8225;SDS011;4154;48.810;9.012;2023-06-14T08:41:42;7.65;;;5.35;;
8225;SDS011;4154;48.810;9.012;2023-06-14T08:44:16;8.05;;;4.65;;
8225;SDS011;4154;48.810;9.012;2023-06-14T08:46:42;7.50;;;4.90;;
8225;SDS011;4154;48.810;9.012;2023-06-14T08:49:10;6.30;;;4.93;;
8225;SDS011;4154;48.810;9.012;2023-06-14T08:51:37;5.43;;;4.93;;
8225;SDS011;4154;48.810;9.012;2023-06-14T08:54:05;6.15;;;4.70;;
8225;SDS011;4154;48.810;9.012;2023-06-14T08:56:31;5.50;;;5.00;;
8225;SDS011;4154;48.810;9.012;2023-06-14T08:58:59;5.78;;;4.70;;
8225;SDS011;4154;48.810;9.012;2023-06-14T09:01:34;6.25;;;4.80;;
8225;SDS011;4154;48.810;9.012;2023-06-14T09:04:02;7.03;;;5.03;;
8225;SDS011;4154;48.810;9.012;2023-06-14T09:06:30;5.13;;;4.07;;
8225;SDS011;4154;48.810;9.012;2023-06-14T09:08:57;5.38;;;4.88;;
8225;SDS011;4154;48.810;9.012;2023-06-14T09:11:24;6.03;;;4.55;;
8225;SDS011;4154;48.810;9.012;2023-06-14T09:13:51;4.80;;;4.40;;
8225;SDS011;4154;48.810;9.012;2023-06-14T09:16:17;5.10;;;4.60;;
8225;SDS011;4154;48.810;9.012;2023-06-14T09:18:44;5.32;;;4.82;;
8225;SDS011;4154;48.810;9.012;2023-06-14T09:21:15;7.47;;;4.97;;
8225;SDS011;4154;48.810;9.012;2023-06-14T09:23:42;5.93;;;4.70;;
8225;SDS011;4154;48.810;9.012;2023-06-14T09:26:12;6.28;;;4.75;;
8225;SDS011;4154;48.810;9.012;2023-06-14T09:28:44;6.25;;;5.18;;
8225;SDS011;4154;48.810;9.012;2023-06-14T09:31:15;5.15;;;4.72;;
8225;SDS011;4154;48.810;9.012;2023-06-14T09:33:44;5.30;;;4.78;;
8225;SDS011;4154;48.810;9.012;2023-06-14T09:36:16;6.10;;;4.63;;
8225;SDS011;4154;48.810;9.012;2023-06-14T09:41:20;5.78;;;4.00;;
8225;SDS011;4154;48.810;9.012;2023-06-14T09:43:55;8.63;;;4.95;;
8225;SDS011;4154;48.810;9.012;2023-06-14T09:46:25;6.30;;;4.55;;
8225;SDS011;4154;48.810;9.012;2023-06-14T09:48:52;5.30;;;4.72;;
8225;SDS011;4154;48.810;9.012;2023-06-14T09:51:18;5.55;;;4.60;;
8225;SDS011;4154;48.810;9.012;2023-06-14T09:53:46;5.13;;;4.57;;
8225;SDS011;4154;48.810;9.012;2023-06-14T09:56:17;4.97;;;4.57;;
8225;SDS011;4154;48.810;9.012;2023-06-14T09:59:05;4.88;;;4.40;;
8225;SDS011;4154;48.810;9.012;2023-06-14T10:01:34;5.85;;;4.47;;
8225;SDS011;4154;48.810;9.012;2023-06-14T10:04:07;4.60;;;4.07;;
8225;SDS011;4154;48.810;9.012;2023-06-14T10:06:43;6.00;;;4.45;;
8225;SDS011;4154;48.810;9.012;2023-06-14T10:09:10;4.90;;;4.40;;
8225;SDS011;4154;48.810;9.012;2023-06-14T10:11:37;5.07;;;4.10;;
8225;SDS011;4154;48.810;9.012;2023-06-14T10:14:09;7.13;;;3.95;;
8225;SDS011;4154;48.810;9.012;2023-06-14T10:16:38;4.93;;;4.00;;
8225;SDS011;4154;48.810;9.012;2023-06-14T10:24:41;6.35;;;4.30;;
8225;SDS011;4154;48.810;9.012;2023-06-14T10:27:09;4.65;;;3.80;;
8225;SDS011;4154;48.810;9.012;2023-06-14T10:32:21;5.65;;;3.97;;
8225;SDS011;4154;48.810;9.012;2023-06-14T10:35:08;3.67;;;3.38;;
8225;SDS011;4154;48.810;9.012;2023-06-14T10:37:41;5.85;;;4.18;;
8225;SDS011;4154;48.810;9.012;2023-06-14T10:40:16;5.00;;;3.85;;
8225;SDS011;4154;48.810;9.012;2023-06-14T10:42:55;4.03;;;3.72;;
8225;SDS011;4154;48.810;9.012;2023-06-14T10:45:21;5.25;;;4.10;;
8225;SDS011;4154;48.810;9.012;2023-06-14T10:47:48;6.00;;;4.03;;
8225;SDS011;4154;48.810;9.012;2023-06-14T10:50:17;6.18;;;3.90;;
8225;SDS011;4154;48.810;9.012;2023-06-14T10:52:52;4.78;;;3.92;;
8225;SDS011;4154;48.810;9.012;2023-06-14T10:55:18;4.50;;;4.10;;
8225;SDS011;4154;48.810;9.012;2023-06-14T10:57:51;5.10;;;4.03;;
8225;SDS011;4154;48.810;9.012;2023-06-14T11:00:24;4.07;;;3.60;;
8225;SDS011;4154;48.810;9.012;2023-06-14T11:03:18;4.85;;;3.72;;
8225;SDS011;4154;48.810;9.012;2023-06-14T11:06:13;4.35;;;3.80;;
8225;SDS011;4154;48.810;9.012;2023-06-14T11:08:47;4.43;;;3.97;;
8225;SDS011;4154;48.810;9.012;2023-06-14T11:11:49;4.28;;;3.60;;
8225;SDS011;4154;48.810;9.012;2023-06-14T11:14:19;4.60;;;3.80;;
8225;SDS011;4154;48.810;9.012;2023-06-14T11:16:49;4.90;;;3.83;;
8225;SDS011;4154;48.810;9.012;2023-06-14T11:19:15;3.83;;;3.38;;
8225;SDS011;4154;48.810;9.012;2023-06-14T11:21:42;5.82;;;3.60;;
8225;SDS011;4154;48.810;9.012;2023-06-14T11:24:12;5.30;;;3.90;;
8225;SDS011;4154;48.810;9.012;2023-06-14T11:26:39;4.38;;;3.50;;
8225;SDS011;4154;48.810;9.012;2023-06-14T11:29:05;5.65;;;3.70;;
8225;SDS011;4154;48.810;9.012;2023-06-14T11:31:31;4.93;;;3.95;;
8225;SDS011;4154;48.810;9.012;2023-06-14T11:33:58;5.70;;;3.67;;
8225;SDS011;4154;48.810;9.012;2023-06-14T11:36:28;5.78;;;3.47;;
8225;SDS011;4154;48.810;9.012;2023-06-14T11:38:59;4.60;;;3.83;;
8225;SDS011;4154;48.810;9.012;2023-06-14T11:41:41;4.13;;;3.53;;
8225;SDS011;4154;48.810;9.012;2023-06-14T11:44:08;4.22;;;3.50;;
8225;SDS011;4154;48.810;9.012;2023-06-14T11:46:35;10.25;;;3.83;;
8225;SDS011;4154;48.810;9.012;2023-06-14T11:49:01;5.93;;;3.55;;
8225;SDS011;4154;48.810;9.012;2023-06-14T11:51:30;4.20;;;3.80;;
8225;SDS011;4154;48.810;9.012;2023-06-14T11:53:57;6.32;;;3.58;;
8225;SDS011;4154;48.810;9.012;2023-06-14T11:56:23;5.85;;;3.92;;
8225;SDS011;4154;48.810;9.012;2023-06-14T11:58:52;4.47;;;3.72;;
8225;SDS011;4154;48.810;9.012;2023-06-14T12:01:21;8.45;;;3.85;;
8225;SDS011;4154;48.810;9.012;2023-06-14T12:03:48;4.93;;;3.80;;
8225;SDS011;4154;48.810;9.012;2023-06-14T12:06:15;4.75;;;3.47;;
8225;SDS011;4154;48.810;9.012;2023-06-14T12:08:43;4.00;;;3.60;;
8225;SDS011;4154;48.810;9.012;2023-06-14T12:11:11;4.07;;;3.70;;
8225;SDS011;4154;48.810;9.012;2023-06-14T12:13:38;4.85;;;3.58;;
8225;SDS011;4154;48.810;9.012;2023-06-14T12:16:06;3.95;;;3.60;;
8225;SDS011;4154;48.810;9.012;2023-06-14T12:18:37;5.57;;;3.92;;
8225;SDS011;4154;48.810;9.012;2023-06-14T12:21:07;4.13;;;3.72;;
8225;SDS011;4154;48.810;9.012;2023-06-14T12:23:45;5.70;;;3.60;;
8225;SDS011;4154;48.810;9.012;2023-06-14T12:26:13;5.47;;;3.60;;
8225;SDS011;4154;48.810;9.012;2023-06-14T12:28:47;4.53;;;3.60;;
8225;SDS011;4154;48.810;9.012;2023-06-14T12:31:13;6.03;;;3.60;;
8225;SDS011;4154;48.810;9.012;2023-06-14T12:33:41;4.43;;;3.40;;
8225;SDS011;4154;48.810;9.012;2023-06-14T12:36:08;4.15;;;3.45;;
8225;SDS011;4154;48.810;9.012;2023-06-14T12:38:35;4.53;;;3.60;;
8225;SDS011;4154;48.810;9.012;2023-06-14T12:41:02;4.00;;;3.60;;
8225;SDS011;4154;48.810;9.012;2023-06-14T12:43:28;3.88;;;3.25;;
8225;SDS011;4154;48.810;9.012;2023-06-14T12:45:55;4.80;;;3.65;;
8225;SDS011;4154;48.810;9.012;2023-06-14T12:48:21;4.28;;;3.40;;
8225;SDS011;4154;48.810;9.012;2023-06-14T12:50:47;3.70;;;3.38;;
8225;SDS011;4154;48.810;9.012;2023-06-14T12:53:13;6.22;;;3.50;;
8225;SDS011;4154;48.810;9.012;2023-06-14T12:55:39;4.05;;;3.60;;
8225;SDS011;4154;48.810;9.012;2023-06-14T12:58:06;6.60;;;4.00;;
8225;SDS011;4154;48.810;9.012;2023-06-14T13:00:32;7.95;;;3.65;;
8225;SDS011;4154;48.810;9.012;2023-06-14T13:02:58;3.88;;;3.47;;
8225;SDS011;4154;48.810;9.012;2023-06-14T13:05:24;4.57;;;3.40;;
8225;SDS011;4154;48.810;9.012;2023-06-14T13:07:50;5.30;;;3.58;;
8225;SDS011;4154;48.810;9.012;2023-06-14T13:10:17;5.13;;;3.58;;
8225;SDS011;4154;48.810;9.012;2023-06-14T13:12:43;3.95;;;3.50;;
8225;SDS011;4154;48.810;9.012;2023-06-14T13:15:09;4.20;;;3.83;;
8225;SDS011;4154;48.810;9.012;2023-06-14T13:17:35;3.92;;;3.63;;
8225;SDS011;4154;48.810;9.012;2023-06-14T13:20:06;4.25;;;3.85;;
8225;SDS011;4154;48.810;9.012;2023-06-14T13:22:33;4.20;;;3.80;;
8225;SDS011;4154;48.810;9.012;2023-06-14T13:25:00;4.15;;;3.55;;
8225;SDS011;4154;48.810;9.012;2023-06-14T13:27:27;5.35;;;3.25;;
8225;SDS011;4154;48.810;9.012;2023-06-14T13:29:53;3.95;;;3.40;;
8225;SDS011;4154;48.810;9.012;2023-06-14T13:32:22;3.50;;;3.20;;
8225;SDS011;4154;48.810;9.012;2023-06-14T13:34:49;6.78;;;3.47;;
8225;SDS011;4154;48.810;9.012;2023-06-14T13:37:15;4.15;;;3.28;;
8225;SDS011;4154;48.810;9.012;2023-06-14T13:39:41;4.82;;;3.65;;
8225;SDS011;4154;48.810;9.012;2023-06-14T13:42:07;4.28;;;3.40;;
8225;SDS011;4154;48.810;9.012;2023-06-14T13:44:33;3.90;;;3.50;;
8225;SDS011;4154;48.810;9.012;2023-06-14T13:46:59;4.20;;;3.67;;
8225;SDS011;4154;48.810;9.012;2023-06-14T13:49:25;4.50;;;3.50;;
8225;SDS011;4154;48.810;9.012;2023-06-14T13:51:51;7.20;;;3.58;;
8225;SDS011;4154;48.810;9.012;2023-06-14T13:54:19;4.47;;;3.22;;
8225;SDS011;4154;48.810;9.012;2023-06-14T13:56:46;3.97;;;3.60;;
8225;SDS011;4154;48.810;9.012;2023-06-14T13:59:12;4.80;;;3.65;;
8225;SDS011;4154;48.810;9.012;2023-06-14T14:01:38;4.22;;;3.40;;
8225;SDS011;4154;48.810;9.012;2023-06-14T14:04:04;3.85;;;3.42;;
8225;SDS011;4154;48.810;9.012;2023-06-14T14:06:30;4.68;;;3.67;;
8225;SDS011;4154;48.810;9.012;2023-06-14T14:08:57;4.38;;;3.53;;
8225;SDS011;4154;48.810;9.012;2023-06-14T14:11:23;5.15;;;3.60;;
8225;SDS011;4154;48.810;9.012;2023-06-14T14:13:49;4.22;;;3.83;;
8225;SDS011;4154;48.810;9.012;2023-06-14T14:16:15;3.78;;;3.47;;
8225;SDS011;4154;48.810;9.012;2023-06-14T14:18:41;3.92;;;3.63;;
8225;SDS011;4154;48.810;9.012;2023-06-14T14:21:07;5.60;;;3.78;;
8225;SDS011;4154;48.810;9.012;2023-06-14T14:23:34;5.40;;;3.53;;
8225;SDS011;4154;48.810;9.012;2023-06-14T14:26:00;3.88;;;3.40;;
8225;SDS011;4154;48.810;9.012;2023-06-14T14:28:29;4.10;;;3.70;;
8225;SDS011;4154;48.810;9.012;2023-06-14T14:30:56;3.95;;;3.47;;
8225;SDS011;4154;48.810;9.012;2023-06-14T14:33:22;3.53;;;3.22;;
8225;SDS011;4154;48.810;9.012;2023-06-14T14:35:48;4.22;;;3.47;;
8225;SDS011;4154;48.810;9.012;2023-06-14T14:38:14;3.85;;;3.33;;
8225;SDS011;4154;48.810;9.012;2023-06-14T14:40:41;3.45;;;3.20;;
8225;SDS011;4154;48.810;9.012;2023-06-14T14:43:08;4.90;;;3.60;;
8225;SDS011;4154;48.810;9.012;2023-06-14T14:45:36;4.28;;;3.40;;
8225;SDS011;4154;48.810;9.012;2023-06-14T14:48:02;4.55;;;4.10;;
8225;SDS011;4154;48.810;9.012;2023-06-14T14:50:28;4.15;;;3.60;;
8225;SDS011;4154;48.810;9.012;2023-06-14T14:52:55;6.70;;;3.75;;
8225;SDS011;4154;48.810;9.012;2023-06-14T14:55:21;4.15;;;3.72;;
8225;SDS011;4154;48.810;9.012;2023-06-14T14:57:47;5.03;;;3.80;;
8225;SDS011;4154;48.810;9.012;2023-06-14T15:00:14;3.90;;;3.50;;
8225;SDS011;4154;48.810;9.012;2023-06-14T15:02:40;4.13;;;3.53;;
8225;SDS011;4154;48.810;9.012;2023-06-14T15:05:06;4.53;;;3.55;;
8225;SDS011;4154;48.810;9.012;2023-06-14T15:07:32;3.70;;;3.40;;
8225;SDS011;4154;48.810;9.012;2023-06-14T15:09:58;5.43;;;3.40;;
8225;SDS011;4154;48.810;9.012;2023-06-14T15:12:25;5.88;;;3.55;;
8225;SDS011;4154;48.810;9.012;2023-06-14T15:14:51;3.97;;;3.42;;
8225;SDS011;4154;48.810;9.012;2023-06-14T15:17:18;3.90;;;3.50;;
8225;SDS011;4154;48.810;9.012;2023-06-14T15:19:47;4.90;;;3.72;;
8225;SDS011;4154;48.810;9.012;2023-06-14T15:22:13;4.18;;;3.75;;
8225;SDS011;4154;48.810;9.012;2023-06-14T15:24:42;4.10;;;3.70;;
8225;SDS011;4154;48.810;9.012;2023-06-14T15:27:09;3.80;;;3.50;;
8225;SDS011;4154;48.810;9.012;2023-06-14T15:29:37;4.05;;;3.50;;
8225;SDS011;4154;48.810;9.012;2023-06-14T15:32:05;4.28;;;3.85;;
8225;SDS011;4154;48.810;9.012;2023-06-14T15:34:32;5.03;;;3.58;;